createdAt,value
2018-08-17T00:02:23.473Z,7.27
2018-08-17T00:04:50.504Z,8.00
2018-08-17T00:07:17.465Z,7.00
2018-08-17T00:09:44.381Z,7.63
2018-08-17T00:12:11.681Z,6.93
2018-08-17T00:14:38.638Z,6.70
2018-08-17T00:17:05.589Z,6.80
2018-08-17T00:19:32.572Z,7.30
2018-08-17T00:21:59.718Z,7.53
2018-08-17T00:24:26.826Z,7.40
2018-08-17T00:26:53.946Z,8.90
2018-08-17T00:29:21.151Z,7.43
2018-08-17T00:31:48.260Z,7.80
2018-08-17T00:34:15.422Z,6.77
2018-08-17T00:36:42.488Z,7.50
2018-08-17T00:39:10.420Z,7.10
2018-08-17T00:41:37.917Z,7.37
2018-08-17T00:44:04.988Z,7.40
2018-08-17T00:46:32.114Z,7.80
2018-08-17T00:48:59.550Z,7.20
2018-08-17T00:51:26.589Z,7.77
2018-08-17T00:53:53.530Z,7.60
2018-08-17T00:56:20.647Z,7.17
2018-08-17T00:58:47.679Z,6.83
2018-08-17T01:01:14.672Z,7.10
2018-08-17T01:03:41.684Z,7.00
2018-08-17T01:06:08.727Z,6.87
2018-08-17T01:08:35.698Z,7.37
2018-08-17T01:11:02.718Z,6.37
2018-08-17T01:13:29.706Z,7.27
2018-08-17T01:15:56.737Z,6.60
2018-08-17T01:18:24.128Z,6.57
2018-08-17T01:20:51.147Z,7.47
2018-08-17T01:23:18.097Z,7.23
2018-08-17T01:25:45.111Z,7.70
2018-08-17T01:28:12.116Z,6.80
2018-08-17T01:30:39.130Z,6.73
2018-08-17T01:33:06.221Z,7.00
2018-08-17T01:35:33.291Z,6.53
2018-08-17T01:38:00.316Z,7.67
2018-08-17T01:40:27.556Z,6.57
2018-08-17T01:42:54.528Z,7.27
2018-08-17T01:45:21.590Z,7.70
2018-08-17T01:47:48.877Z,7.20
2018-08-17T01:50:15.861Z,8.40
2018-08-17T01:52:42.943Z,7.80
2018-08-17T01:55:10.923Z,7.23
2018-08-17T01:57:37.984Z,7.20
2018-08-17T02:00:06.647Z,6.83
2018-08-17T02:02:34.008Z,7.13
2018-08-17T02:05:01.025Z,7.77
2018-08-17T02:07:28.013Z,7.07
2018-08-17T02:09:55.022Z,6.63
2018-08-17T02:12:22.772Z,6.80
2018-08-17T02:14:49.882Z,7.33
2018-08-17T02:17:17.202Z,7.77
2018-08-17T02:19:44.239Z,6.93
2018-08-17T02:22:11.295Z,7.27
2018-08-17T02:24:38.277Z,7.10
2018-08-17T02:27:05.489Z,8.00
2018-08-17T02:29:32.729Z,6.90
2018-08-17T02:31:59.977Z,6.43
2018-08-17T02:34:27.053Z,6.60
2018-08-17T02:36:54.351Z,7.47
2018-08-17T02:39:21.366Z,7.50
2018-08-17T02:41:48.379Z,7.73
2018-08-17T02:44:15.361Z,6.57
2018-08-17T02:46:42.375Z,6.37
2018-08-17T02:49:09.403Z,6.90
2018-08-17T02:51:36.388Z,7.53
2018-08-17T02:54:03.332Z,6.77
2018-08-17T02:56:30.370Z,6.70
2018-08-17T02:58:57.465Z,7.37
2018-08-17T03:01:24.558Z,7.10
2018-08-17T03:03:51.529Z,7.33
2018-08-17T03:06:18.497Z,7.17
2018-08-17T03:08:45.458Z,7.10
2018-08-17T03:11:12.493Z,6.93
2018-08-17T03:13:39.499Z,7.73
2018-08-17T03:16:06.569Z,6.80
2018-08-17T03:18:33.607Z,6.93
2018-08-17T03:21:00.686Z,6.83
2018-08-17T03:23:27.732Z,7.10
2018-08-17T03:25:54.690Z,7.70
2018-08-17T03:28:21.748Z,7.50
2018-08-17T03:30:49.070Z,7.00
2018-08-17T03:33:16.054Z,6.60
2018-08-17T03:35:43.008Z,7.13
2018-08-17T03:38:10.031Z,7.40
2018-08-17T03:40:36.982Z,6.90
2018-08-17T03:43:03.977Z,7.20
2018-08-17T03:45:31.010Z,7.33
2018-08-17T03:47:58.040Z,7.00
2018-08-17T03:50:25.065Z,7.17
2018-08-17T03:52:52.044Z,7.77
2018-08-17T03:55:19.033Z,6.80
2018-08-17T03:57:46.021Z,7.80
2018-08-17T04:00:13.041Z,7.10
2018-08-17T04:02:40.432Z,7.27
2018-08-17T04:05:07.468Z,7.47
2018-08-17T04:07:34.511Z,8.33
2018-08-17T04:10:01.505Z,7.77
2018-08-17T04:12:28.522Z,7.00
2018-08-17T04:14:55.945Z,7.20
2018-08-17T04:17:23.012Z,8.10
2018-08-17T04:19:50.179Z,7.33
2018-08-17T04:22:17.238Z,7.20
2018-08-17T04:24:44.319Z,7.30
2018-08-17T04:27:11.291Z,6.90
2018-08-17T04:29:38.318Z,7.30
2018-08-17T04:32:05.526Z,7.93
2018-08-17T04:34:32.490Z,7.70
2018-08-17T04:36:59.502Z,7.47
2018-08-17T04:39:26.465Z,7.90
2018-08-17T04:41:53.412Z,6.77
2018-08-17T04:44:20.386Z,7.37
2018-08-17T04:46:47.407Z,7.13
2018-08-17T04:49:14.768Z,7.40
2018-08-17T04:51:41.754Z,7.03
2018-08-17T04:54:08.725Z,7.23
2018-08-17T04:56:35.796Z,7.40
2018-08-17T04:59:02.765Z,8.20
2018-08-17T05:01:29.802Z,7.20
2018-08-17T05:03:56.791Z,7.50
2018-08-17T05:06:23.735Z,8.10
2018-08-17T05:08:50.738Z,7.50
2018-08-17T05:11:17.706Z,7.73
2018-08-17T05:13:44.634Z,7.00
2018-08-17T05:16:11.642Z,6.57
2018-08-17T05:18:39.106Z,7.10
2018-08-17T05:21:06.046Z,6.80
2018-08-17T05:23:33.021Z,7.10
2018-08-17T05:26:00.014Z,7.20
2018-08-17T05:28:27.029Z,6.80
2018-08-17T05:30:54.034Z,7.33
2018-08-17T05:33:21.006Z,7.13
2018-08-17T05:35:47.973Z,6.90
2018-08-17T05:38:14.907Z,6.90
2018-08-17T05:40:42.180Z,7.00
2018-08-17T05:43:09.150Z,7.40
2018-08-17T05:45:36.090Z,6.67
2018-08-17T05:48:03.076Z,7.10
2018-08-17T05:50:32.492Z,6.20
2018-08-17T05:52:59.685Z,6.23
2018-08-17T05:55:27.117Z,7.90
2018-08-17T05:57:54.134Z,5.93
2018-08-17T06:00:21.099Z,6.57
2018-08-17T06:02:48.214Z,6.07
2018-08-17T06:05:15.204Z,6.40
2018-08-17T06:07:42.150Z,6.67
2018-08-17T06:10:09.353Z,6.23
2018-08-17T06:12:36.341Z,7.10
2018-08-17T06:15:04.241Z,5.97
2018-08-17T06:17:31.200Z,6.63
2018-08-17T06:19:58.147Z,6.27
2018-08-17T06:22:25.210Z,6.07
2018-08-17T06:24:52.316Z,5.80
2018-08-17T06:27:19.778Z,5.70
2018-08-17T06:29:46.872Z,6.07
2018-08-17T06:32:13.912Z,4.90
2018-08-17T06:34:40.980Z,6.03
2018-08-17T06:37:08.557Z,5.70
2018-08-17T06:39:35.625Z,5.60
2018-08-17T06:42:02.702Z,4.63
2018-08-17T06:44:29.728Z,5.63
2018-08-17T06:46:56.788Z,6.03
2018-08-17T06:49:23.839Z,5.70
2018-08-17T06:51:50.904Z,7.40
2018-08-17T06:54:18.860Z,6.67
2018-08-17T06:56:45.932Z,7.40
2018-08-17T06:59:13.048Z,5.13
2018-08-17T07:01:40.126Z,8.77
2018-08-17T07:04:07.268Z,4.37
2018-08-17T07:06:34.354Z,6.10
2018-08-17T07:09:01.472Z,6.30
2018-08-17T07:11:28.789Z,6.03
2018-08-17T07:13:55.894Z,4.80
2018-08-17T07:16:22.977Z,4.60
2018-08-17T07:18:50.126Z,3.87
2018-08-17T07:21:17.233Z,5.73
2018-08-17T07:23:44.332Z,4.70
2018-08-17T07:26:11.446Z,4.57
2018-08-17T07:28:38.559Z,4.50
2018-08-17T07:31:05.623Z,4.20
2018-08-17T07:33:32.743Z,4.87
2018-08-17T07:35:59.808Z,5.17
2018-08-17T07:38:26.861Z,4.40
2018-08-17T07:40:53.954Z,5.47
2018-08-17T07:43:21.090Z,4.53
2018-08-17T07:45:48.202Z,4.77
2018-08-17T07:48:15.558Z,4.10
2018-08-17T07:50:42.456Z,4.07
2018-08-17T07:53:09.630Z,4.80
2018-08-17T07:55:36.723Z,4.30
2018-08-17T07:58:03.851Z,3.30
2018-08-17T08:00:30.930Z,3.53
2018-08-17T08:02:58.060Z,3.00
2018-08-17T08:05:25.196Z,4.27
2018-08-17T08:07:52.355Z,5.47
2018-08-17T08:10:19.423Z,5.10
2018-08-17T08:12:46.523Z,4.33
2018-08-17T08:15:13.638Z,3.73
2018-08-17T08:17:40.754Z,4.23
2018-08-17T08:20:13.767Z,4.30
2018-08-17T08:22:40.863Z,4.50
2018-08-17T08:25:07.936Z,3.47
2018-08-17T08:27:35.058Z,5.10
2018-08-17T08:30:02.187Z,4.53
2018-08-17T08:32:29.352Z,3.80
2018-08-17T08:34:56.472Z,4.07
2018-08-17T08:37:23.626Z,2.90
2018-08-17T08:39:50.689Z,8.70
2018-08-17T08:42:17.820Z,4.73
2018-08-17T08:44:44.957Z,3.93
2018-08-17T08:47:12.019Z,3.83
2018-08-17T08:49:39.552Z,4.53
2018-08-17T08:52:06.658Z,3.40
2018-08-17T08:54:33.952Z,3.63
2018-08-17T08:57:01.008Z,4.20
2018-08-17T08:59:28.148Z,5.90
2018-08-17T09:01:55.237Z,7.57
2018-08-17T09:04:22.343Z,5.63
2018-08-17T09:06:49.380Z,3.90
2018-08-17T09:09:16.417Z,3.47
2018-08-17T09:11:43.515Z,4.53
2018-08-17T09:14:11.454Z,3.80
2018-08-17T09:16:38.517Z,3.60
2018-08-17T09:19:05.589Z,3.43
2018-08-17T09:21:32.693Z,3.40
2018-08-17T09:23:59.773Z,4.43
2018-08-17T09:26:26.889Z,4.60
2018-08-17T09:28:53.976Z,3.87
2018-08-17T09:31:21.346Z,3.40
2018-08-17T09:33:48.467Z,3.73
2018-08-17T09:36:15.606Z,4.37
2018-08-17T09:38:42.694Z,4.00
2018-08-17T09:41:09.777Z,4.23
2018-08-17T09:43:38.448Z,3.50
2018-08-17T09:46:05.623Z,4.00
2018-08-17T09:48:32.779Z,4.23
2018-08-17T09:50:59.988Z,4.90
2018-08-17T09:53:27.045Z,5.73
2018-08-17T09:55:54.107Z,3.07
2018-08-17T09:58:21.198Z,7.27
2018-08-17T10:00:54.078Z,7.83
2018-08-17T10:03:26.999Z,2.80
2018-08-17T10:05:59.878Z,4.07
2018-08-17T10:08:31.800Z,4.10
2018-08-17T10:10:59.306Z,3.97
2018-08-17T10:13:26.411Z,3.17
2018-08-17T10:15:53.623Z,9.00
2018-08-17T10:18:21.733Z,4.23
2018-08-17T10:20:48.892Z,4.00
2018-08-17T10:23:30.968Z,3.30
2018-08-17T10:25:58.028Z,7.83
2018-08-17T10:28:25.071Z,4.60
2018-08-17T10:30:52.505Z,3.90
2018-08-17T10:33:19.581Z,3.37
2018-08-17T10:35:46.678Z,7.67
2018-08-17T10:38:14.137Z,3.50
2018-08-17T10:40:41.238Z,3.13
2018-08-17T10:43:08.301Z,5.40
2018-08-17T10:45:35.347Z,4.30
2018-08-17T10:48:02.392Z,3.30
2018-08-17T10:50:31.636Z,3.17
2018-08-17T10:52:59.935Z,3.10
2018-08-17T10:55:34.448Z,3.97
2018-08-17T10:58:01.924Z,9.43
2018-08-17T11:00:28.952Z,10.80
2018-08-17T11:02:56.020Z,3.23
2018-08-17T11:05:23.106Z,3.20
2018-08-17T11:07:50.137Z,3.53
2018-08-17T11:10:17.189Z,6.17
2018-08-17T11:12:45.394Z,3.67
2018-08-17T11:15:12.494Z,3.40
2018-08-17T11:17:40.246Z,2.93
2018-08-17T11:20:07.337Z,3.20
2018-08-17T11:22:35.470Z,4.97
2018-08-17T11:25:04.890Z,2.60
2018-08-17T11:27:32.042Z,5.93
2018-08-17T11:29:59.102Z,5.00
2018-08-17T11:32:26.650Z,6.10
2018-08-17T11:34:54.540Z,5.27
2018-08-17T11:37:22.154Z,5.30
2018-08-17T11:39:54.773Z,5.07
2018-08-17T11:42:22.097Z,3.17
2018-08-17T11:44:49.222Z,3.10
2018-08-17T11:47:16.265Z,3.47
2018-08-17T11:49:43.355Z,2.80
2018-08-17T11:52:10.425Z,2.43
2018-08-17T11:54:37.499Z,2.50
2018-08-17T11:57:04.573Z,3.30
2018-08-17T11:59:32.330Z,2.33
2018-08-17T12:01:59.530Z,2.50
2018-08-17T12:04:26.590Z,2.40
2018-08-17T12:06:53.696Z,3.10
2018-08-17T12:09:20.765Z,3.30
2018-08-17T12:11:47.884Z,3.40
2018-08-17T12:14:14.950Z,3.40
2018-08-17T12:16:42.055Z,3.20
2018-08-17T12:19:09.141Z,2.83
2018-08-17T12:21:36.286Z,3.30
2018-08-17T12:24:03.390Z,3.70
2018-08-17T12:26:31.864Z,3.40
2018-08-17T12:28:58.964Z,2.87
2018-08-17T12:31:26.069Z,3.00
2018-08-17T12:33:53.133Z,3.17
2018-08-17T12:36:20.249Z,3.10
2018-08-17T12:38:47.291Z,2.57
2018-08-17T12:41:14.319Z,2.60
2018-08-17T12:43:41.407Z,3.17
2018-08-17T12:46:08.473Z,2.90
2018-08-17T12:48:35.628Z,2.77
2018-08-17T12:51:03.619Z,3.93
2018-08-17T12:53:30.740Z,3.00
2018-08-17T12:55:57.754Z,3.57
2018-08-17T12:58:24.873Z,3.43
2018-08-17T13:00:51.989Z,3.10
2018-08-17T13:03:19.096Z,4.30
2018-08-17T13:05:46.151Z,3.73
2018-08-17T13:08:13.213Z,5.73
2018-08-17T13:10:40.300Z,3.43
2018-08-17T13:13:08.602Z,3.10
2018-08-17T13:15:36.232Z,3.30
2018-08-17T13:18:11.973Z,4.00
2018-08-17T13:20:39.166Z,4.20
2018-08-17T13:23:06.545Z,6.27
2018-08-17T13:25:33.595Z,5.90
2018-08-17T13:28:00.669Z,4.50
2018-08-17T13:30:27.730Z,4.27
2018-08-17T13:32:54.793Z,3.80
2018-08-17T13:35:21.874Z,3.93
2018-08-17T13:37:48.977Z,4.13
2018-08-17T13:40:16.052Z,4.00
2018-08-17T13:42:43.114Z,3.47
2018-08-17T13:45:10.201Z,3.17
2018-08-17T13:47:37.293Z,3.63
2018-08-17T13:50:04.709Z,3.17
2018-08-17T13:52:31.728Z,3.00
2018-08-17T13:54:58.811Z,2.97
2018-08-17T13:57:26.215Z,3.30
2018-08-17T13:59:53.291Z,3.43
2018-08-17T14:02:20.373Z,2.97
2018-08-17T14:04:47.445Z,3.20
2018-08-17T14:07:14.529Z,3.60
2018-08-17T14:09:41.853Z,3.20
2018-08-17T14:12:09.424Z,2.50
2018-08-17T14:14:36.558Z,3.00
2018-08-17T14:17:03.860Z,3.20
2018-08-17T14:19:30.918Z,3.20
2018-08-17T14:21:58.102Z,2.67
2018-08-17T14:24:25.227Z,3.33
2018-08-17T14:26:52.305Z,3.20
2018-08-17T14:29:19.449Z,3.70
2018-08-17T14:31:46.589Z,3.43
2018-08-17T14:34:13.724Z,3.50
2018-08-17T14:36:40.736Z,3.67
2018-08-17T14:39:07.853Z,3.90
2018-08-17T14:41:40.788Z,4.00
2018-08-17T14:44:08.228Z,3.30
2018-08-17T14:46:35.307Z,3.70
2018-08-17T14:49:02.385Z,3.87
2018-08-17T14:51:29.477Z,3.40
2018-08-17T14:53:56.569Z,4.27
2018-08-17T14:56:23.679Z,4.33
2018-08-17T14:58:50.810Z,4.17
2018-08-17T15:01:17.951Z,3.40
2018-08-17T15:03:45.392Z,3.97
2018-08-17T15:06:12.487Z,3.60
2018-08-17T15:08:39.541Z,4.83
2018-08-17T15:11:06.573Z,4.13
2018-08-17T15:13:33.755Z,4.27
2018-08-17T15:16:00.891Z,3.67
2018-08-17T15:18:28.004Z,4.53
2018-08-17T15:20:55.113Z,4.87
2018-08-17T15:23:22.359Z,5.10
2018-08-17T15:25:49.499Z,4.30
2018-08-17T15:28:16.601Z,4.90
2018-08-17T15:30:43.644Z,4.80
2018-08-17T15:33:10.704Z,5.00
2018-08-17T15:35:37.855Z,5.33
2018-08-17T15:38:04.955Z,4.70
2018-08-17T15:40:32.003Z,4.83
2018-08-17T15:43:03.782Z,5.13
2018-08-17T15:45:30.875Z,5.00
2018-08-17T15:47:57.949Z,5.40
2018-08-17T15:50:25.365Z,5.60
2018-08-17T15:52:52.433Z,5.23
2018-08-17T15:55:19.521Z,5.27
2018-08-17T15:57:46.801Z,5.13
2018-08-17T16:00:16.058Z,5.37
2018-08-17T16:02:43.173Z,6.33
2018-08-17T16:05:10.264Z,5.40
2018-08-17T16:07:37.337Z,6.20
2018-08-17T16:10:13.473Z,5.80
2018-08-17T16:12:40.665Z,5.57
2018-08-17T16:15:08.440Z,5.90
2018-08-17T16:17:36.106Z,6.17
2018-08-17T16:20:03.786Z,6.03
2018-08-17T16:22:30.820Z,6.33
2018-08-17T16:24:57.949Z,6.80
2018-08-17T16:27:25.028Z,6.93
2018-08-17T16:29:52.089Z,7.70
2018-08-17T16:32:19.161Z,6.90
2018-08-17T16:34:46.276Z,6.70
2018-08-17T16:37:13.335Z,6.90
2018-08-17T16:39:46.293Z,7.03
2018-08-17T16:42:15.847Z,6.93
2018-08-17T16:44:43.037Z,6.90
2018-08-17T16:47:10.041Z,7.60
2018-08-17T16:49:37.135Z,7.00
2018-08-17T16:52:04.224Z,8.00
2018-08-17T16:54:31.564Z,7.90
2018-08-17T16:56:58.723Z,7.70
2018-08-17T16:59:25.866Z,7.50
2018-08-17T17:01:52.982Z,8.10
2018-08-17T17:04:20.045Z,7.93
2018-08-17T17:06:47.195Z,7.57
2018-08-17T17:09:14.346Z,9.30
2018-08-17T17:11:41.468Z,9.90
2018-08-17T17:14:08.615Z,9.70
2018-08-17T17:16:44.392Z,10.10
2018-08-17T17:19:12.973Z,8.93
2018-08-17T17:21:40.030Z,8.67
2018-08-17T17:24:07.436Z,8.37
2018-08-17T17:26:34.570Z,8.80
2018-08-17T17:29:01.669Z,9.70
2018-08-17T17:31:28.741Z,9.33
2018-08-17T17:33:55.806Z,9.70
2018-08-17T17:36:22.880Z,9.10
2018-08-17T17:38:49.939Z,9.40
2018-08-17T17:41:17.029Z,9.30
2018-08-17T17:43:44.125Z,10.13
2018-08-17T17:46:11.230Z,9.10
2018-08-17T17:48:38.300Z,9.33
2018-08-17T17:51:05.335Z,9.40
2018-08-17T17:53:32.741Z,9.40
2018-08-17T17:55:59.853Z,8.53
2018-08-17T17:58:26.958Z,9.20
2018-08-17T18:00:59.955Z,9.33
2018-08-17T18:03:28.338Z,8.10
2018-08-17T18:05:59.080Z,9.10
2018-08-17T18:08:26.246Z,8.57
2018-08-17T18:10:53.299Z,8.10
2018-08-17T18:13:20.429Z,8.33
2018-08-17T18:15:48.309Z,8.27
2018-08-17T18:18:15.441Z,8.10
2018-08-17T18:20:42.625Z,8.87
2018-08-17T18:23:09.788Z,9.20
2018-08-17T18:25:36.826Z,7.63
2018-08-17T18:28:03.938Z,7.00
2018-08-17T18:30:31.275Z,8.17
2018-08-17T18:32:58.362Z,7.03
2018-08-17T18:35:25.411Z,7.10
2018-08-17T18:37:52.471Z,7.00
2018-08-17T18:40:19.586Z,7.30
2018-08-17T18:42:46.679Z,6.57
2018-08-17T18:45:13.756Z,6.93
2018-08-17T18:47:40.817Z,6.53
2018-08-17T18:50:07.915Z,6.33
2018-08-17T18:52:35.081Z,9.50
2018-08-17T18:55:02.282Z,7.80
2018-08-17T18:57:29.326Z,6.40
2018-08-17T18:59:56.429Z,6.03
2018-08-17T19:02:23.533Z,5.90
2018-08-17T19:04:50.588Z,5.47
2018-08-17T19:07:17.659Z,5.30
2018-08-17T19:09:44.739Z,5.03
2018-08-17T19:12:11.938Z,5.40
2018-08-17T19:14:41.491Z,5.70
2018-08-17T19:17:13.298Z,9.23
2018-08-17T19:19:40.483Z,6.93
2018-08-17T19:22:07.539Z,8.33
2018-08-17T19:24:34.709Z,6.63
2018-08-17T19:27:01.834Z,6.00
2018-08-17T19:29:28.982Z,5.70
2018-08-17T19:32:00.360Z,5.13
2018-08-17T19:34:27.840Z,5.10
2018-08-17T19:36:55.069Z,4.90
2018-08-17T19:39:30.863Z,4.73
2018-08-17T19:41:58.688Z,5.23
2018-08-17T19:44:25.892Z,4.77
2018-08-17T19:46:53.024Z,4.90
2018-08-17T19:49:20.255Z,5.30
2018-08-17T19:51:47.474Z,5.67
2018-08-17T19:54:14.682Z,6.30
2018-08-17T19:56:41.819Z,4.97
2018-08-17T19:59:08.979Z,5.30
2018-08-17T20:01:36.053Z,4.70
2018-08-17T20:04:03.363Z,5.67
2018-08-17T20:06:30.495Z,6.00
2018-08-17T20:08:57.656Z,5.67
2018-08-17T20:11:25.121Z,5.70
2018-08-17T20:13:52.177Z,6.10
2018-08-17T20:16:25.248Z,5.47
2018-08-17T20:18:52.361Z,4.63
2018-08-17T20:21:20.853Z,4.80
2018-08-17T20:23:48.114Z,5.60
2018-08-17T20:26:15.569Z,4.70
2018-08-17T20:28:42.417Z,4.07
2018-08-17T20:31:09.505Z,4.27
2018-08-17T20:33:36.623Z,5.27
2018-08-17T20:36:03.722Z,5.40
2018-08-17T20:38:31.366Z,5.23
2018-08-17T20:40:59.189Z,5.90
2018-08-17T20:43:26.685Z,6.50
2018-08-17T20:45:53.897Z,5.33
2018-08-17T20:48:21.216Z,4.40
2018-08-17T20:50:48.452Z,4.20
2018-08-17T20:53:18.089Z,4.63
2018-08-17T20:55:45.212Z,5.70
2018-08-17T20:58:12.317Z,5.87
2018-08-17T21:00:39.704Z,5.80
2018-08-17T21:03:07.132Z,5.07
2018-08-17T21:05:34.557Z,5.00
2018-08-17T21:08:02.004Z,5.50
2018-08-17T21:10:29.888Z,6.80
2018-08-17T21:12:57.369Z,5.30
2018-08-17T21:15:24.820Z,5.67
2018-08-17T21:17:52.215Z,6.70
2018-08-17T21:20:19.633Z,6.10
2018-08-17T21:22:47.072Z,4.47
2018-08-17T21:25:14.370Z,9.50
2018-08-17T21:27:41.578Z,6.73
2018-08-17T21:30:09.595Z,5.87
2018-08-17T21:32:37.082Z,5.17
2018-08-17T21:35:04.839Z,5.57
2018-08-17T21:37:32.006Z,6.03
2018-08-17T21:39:59.559Z,5.70
2018-08-17T21:42:26.708Z,5.60
2018-08-17T21:44:54.877Z,5.20
2018-08-17T21:47:22.047Z,5.20
2018-08-17T21:49:49.327Z,5.00
2018-08-17T21:52:22.389Z,4.53
2018-08-17T21:54:49.537Z,4.47
2018-08-17T21:57:16.848Z,4.80
2018-08-17T21:59:48.659Z,4.33
2018-08-17T22:02:15.983Z,5.37
2018-08-17T22:04:43.155Z,5.00
2018-08-17T22:07:15.004Z,3.83
2018-08-17T22:09:42.402Z,4.60
2018-08-17T22:12:09.895Z,6.40
2018-08-17T22:14:37.526Z,4.53
2018-08-17T22:17:05.174Z,4.10
2018-08-17T22:19:34.826Z,4.37
2018-08-17T22:22:02.016Z,4.20
2018-08-17T22:24:29.584Z,4.23
2018-08-17T22:26:56.799Z,4.47
2018-08-17T22:29:24.431Z,3.93
2018-08-17T22:31:51.651Z,4.47
2018-08-17T22:34:18.955Z,4.23
2018-08-17T22:36:46.143Z,3.60
2018-08-17T22:39:13.253Z,4.57
2018-08-17T22:41:40.466Z,4.50
2018-08-17T22:44:13.947Z,4.00
2018-08-17T22:46:41.079Z,4.00
2018-08-17T22:49:08.248Z,3.30
2018-08-17T22:51:35.408Z,3.40
2018-08-17T22:54:02.521Z,4.30
2018-08-17T22:56:29.595Z,21.17
2018-08-17T22:58:56.937Z,4.07
2018-08-17T23:01:24.016Z,3.70
2018-08-17T23:03:54.361Z,4.20
2018-08-17T23:06:22.409Z,4.30
2018-08-17T23:08:49.424Z,4.10
2018-08-17T23:11:27.310Z,3.50
2018-08-17T23:13:54.373Z,4.20
2018-08-17T23:16:21.353Z,3.53
2018-08-17T23:18:48.389Z,3.40
2018-08-17T23:21:15.352Z,3.60
2018-08-17T23:23:42.343Z,4.00
2018-08-17T23:26:09.309Z,3.70
2018-08-17T23:28:36.295Z,3.90
2018-08-17T23:31:03.302Z,3.80
2018-08-17T23:33:30.590Z,4.03
2018-08-17T23:35:57.730Z,3.83
2018-08-17T23:38:24.835Z,3.77
2018-08-17T23:40:51.963Z,4.00
2018-08-17T23:43:19.045Z,3.70
2018-08-17T23:45:46.109Z,3.03
2018-08-17T23:48:13.208Z,4.07
2018-08-17T23:50:40.356Z,3.70
2018-08-17T23:53:07.503Z,3.53
2018-08-17T23:55:36.277Z,3.93
2018-08-17T23:58:05.701Z,3.30
